Strona główna
METAR-TAF:

METAR-TAF

Lotnisko :

Vlieland, Holandia

Szerokość geograficzna: 53-15N, Długość geograficzna: 004-55E, wysokość: 11 m

Aktualna obserwacja pogody

Raport powstał 10 minut temu, godzina 19:56 UTC
Wiatr 9 kt od północno-północny zachód
Temperatura 7°C
Wilgotność 87%
Ciśnienie 1045 hPa
Widzialność: 8000 m
Przerywane chmury na wysokości 1500 ft
Przerywane chmury na wysokości 16000 ft
zamglenie

METAR: EHVL 191956Z AUTO 33009KT 8000 BR BKN015 BKN160 07/05 Q1045 WHT

czas: 21:06 (20:06 UTC)


TAF: brakujący

Obserwacja i prognoza pogody dla ponad 4000 lotnisk (raport METAR i TAF).

Dostępne stacje oznaczono żółtymi i czerwonymi punktami na mapie.

Najedź kursorem aby zobaczyć nazwę stacji.

Kliknij aby zobaczyć obserwacje i prognozy pogody.

Aby zmienić mapę: kliknij na zielony przycisk z czarnym krzyżykiem, aby powiększyć; na zielony przycisk z myślnikiem, aby pomniejszyć; na zielone strzałki, aby przejść do map sąsiednich.


METAR-TAF: